地図

経路データ

SID SEASON NUMBER BASIN SUBBASIN NAME ISO_TIME NATURE LAT LON WMO_WIND WMO_PRES WMO_AGENCY TRACK_TYPE DIST2LAND LANDFALL IFLAG USA_AGENCY USA_ATCF_ID USA_LAT USA_LON USA_RECORD USA_STATUS USA_WIND USA_PRES USA_SSHS USA_R34_NE USA_R34_SE USA_R34_SW USA_R34_NW USA_R50_NE USA_R50_SE USA_R50_SW USA_R50_NW USA_R64_NE USA_R64_SE USA_R64_SW USA_R64_NW USA_POCI USA_ROCI USA_RMW USA_EYE TOKYO_LAT TOKYO_LON TOKYO_GRADE TOKYO_WIND TOKYO_PRES TOKYO_R50_DIR TOKYO_R50_LONG TOKYO_R50_SHORT TOKYO_R30_DIR TOKYO_R30_LONG TOKYO_R30_SHORT TOKYO_LAND CMA_LAT CMA_LON CMA_CAT CMA_WIND CMA_PRES HKO_LAT HKO_LON HKO_CAT HKO_WIND HKO_PRES NEWDELHI_LAT NEWDELHI_LON NEWDELHI_GRADE NEWDELHI_WIND NEWDELHI_PRES NEWDELHI_CI NEWDELHI_DP NEWDELHI_POCI REUNION_LAT REUNION_LON REUNION_TYPE REUNION_WIND REUNION_PRES REUNION_TNUM REUNION_CI REUNION_RMW REUNION_R34_NE REUNION_R34_SE REUNION_R34_SW REUNION_R34_NW REUNION_R50_NE REUNION_R50_SE REUNION_R50_SW REUNION_R50_NW REUNION_R64_NE REUNION_R64_SE REUNION_R64_SW REUNION_R64_NW BOM_LAT BOM_LON BOM_TYPE BOM_WIND BOM_PRES BOM_TNUM BOM_CI BOM_RMW BOM_R34_NE BOM_R34_SE BOM_R34_SW BOM_R34_NW BOM_R50_NE BOM_R50_SE BOM_R50_SW BOM_R50_NW BOM_R64_NE BOM_R64_SE BOM_R64_SW BOM_R64_NW BOM_ROCI BOM_POCI BOM_EYE BOM_POS_METHOD BOM_PRES_METHOD NADI_LAT NADI_LON NADI_CAT NADI_WIND NADI_PRES WELLINGTON_LAT WELLINGTON_LON WELLINGTON_WIND WELLINGTON_PRES DS824_LAT DS824_LON DS824_STAGE DS824_WIND DS824_PRES TD9636_LAT TD9636_LON TD9636_STAGE TD9636_WIND TD9636_PRES TD9635_LAT TD9635_LON TD9635_WIND TD9635_PRES TD9635_ROCI NEUMANN_LAT NEUMANN_LON NEUMANN_CLASS NEUMANN_WIND NEUMANN_PRES MLC_LAT MLC_LON MLC_CLASS MLC_WIND MLC_PRES USA_GUST BOM_GUST BOM_GUST_PER REUNION_GUST REUNION_GUST_PER USA_SEAHGT USA_SEARAD_NE USA_SEARAD_SE USA_SEARAD_SW USA_SEARAD_NW STORM_SPEED STORM_DIR
1976106S12155 1976 42 SP EA JAN 1976-04-15 00:00:00 TS -12.2000 155.000 main 498 498 O________OO___ jtwc_sh SH251976 -12.2000 155.000 -1 -12.2000 155.000 TC -12.2000 155.000 1 14 136
1976106S12155 1976 42 SP EA JAN 1976-04-15 03:00:00 TS -12.7022 155.497 main 523 523 P________PP___ SH251976 -12.7077 155.492 -1 -12.7077 155.492 TC -12.6912 155.507 1 14 135
1976106S12155 1976 42 SP EA JAN 1976-04-15 06:00:00 TS -13.1919 156.007 main 551 547 O________OP___ jtwc_sh SH251976 -13.2000 156.000 -1 -13.2000 156.000 TC -13.1756 156.022 1 14 133
1976106S12155 1976 42 SP EA JAN 1976-04-15 09:00:00 TS -13.6590 156.540 main 565 554 P________PP___ SH251976 -13.6649 156.535 -1 -13.6649 156.535 TC -13.6472 156.551 1 14 131
1976106S12155 1976 42 SP EA JAN 1976-04-15 12:00:00 TS -14.1000 157.100 main 564 558 O________OO___ jtwc_sh SH251976 -14.1000 157.100 -1 -14.1000 157.100 TC -14.1000 157.100 1 14 128
1976106S12155 1976 42 SP EA JAN 1976-04-15 15:00:00 TS -14.5238 157.691 main 573 573 P________PP___ SH251976 -14.5225 157.700 -1 -14.5225 157.700 TC -14.5265 157.673 1 14 125
1976106S12155 1976 42 SP EA JAN 1976-04-15 18:00:00 TS -14.9041 158.286 main 593 587 O________OP___ jtwc_sh SH251976 -14.9000 158.300 -1 -14.9000 158.300 TC -14.9124 158.257 1 13 122
1976106S12155 1976 42 SP EA JAN 1976-04-15 21:00:00 TS -15.2389 158.856 main 584 581 P________PP___ SH251976 -15.2374 158.865 -1 -15.2374 158.865 TC -15.2421 158.838 1 12 119
1976106S12155 1976 42 SP EA JAN 1976-04-16 00:00:00 TS -15.5000 159.400 30 997 wellington main 586 579 O________OO___ jtwc_sh SH251976 -15.5000 159.400 -1 -15.5000 159.400 TC -15.5000 159.400 1 11 114
1976106S12155 1976 42 SP EA JAN 1976-04-16 03:00:00 TS -15.6888 159.914 main 585 578 P________PP___ SH251976 -15.6873 159.908 -1 -15.6873 159.908 TC -15.6916 159.926 1 10 107
1976106S12155 1976 42 SP MM JAN 1976-04-16 06:00:00 TS -15.8039 160.410 main 579 572 O________OP___ jtwc_sh SH251976 -15.8000 160.400 -1 -15.8000 160.400 TC -15.8118 160.431 1 10 101
1976106S12155 1976 42 SP MM JAN 1976-04-16 09:00:00 TS -15.8786 160.912 main 579 559 P________PP___ SH251976 -15.8799 160.908 -1 -15.8799 160.908 TC -15.8761 160.920 1 10 96
1976106S12155 1976 42 SP MM JAN 1976-04-16 12:00:00 TS -15.9000 161.400 30 997 wellington main 559 516 O________OO___ jtwc_sh SH251976 -15.9000 161.400 -1 -15.9000 161.400 TC -15.9000 161.400 1 9 87
1976106S12155 1976 42 SP MM JAN 1976-04-16 15:00:00 TS -15.8394 161.839 main 516 462 P________PP___ SH251976 -15.8573 161.850 -1 -15.8573 161.850 TC -15.8037 161.816 1 9 81
1976106S12155 1976 42 SP MM JAN 1976-04-16 18:00:00 TS -15.7633 162.278 main 462 419 O________OP___ jtwc_sh SH251976 -15.8000 162.300 -1 -15.8000 162.300 TC -15.6899 162.235 1 9 81
1976106S12155 1976 42 SP MM JAN 1976-04-16 21:00:00 TS -15.7018 162.736 main 419 356 P________PP___ SH251976 -15.7246 162.748 -1 -15.7246 162.748 TC -15.6563 162.711 1 10 92
1976106S12155 1976 42 SP MM JAN 1976-04-17 00:00:00 TS -15.8000 163.300 30 997 wellington main 356 289 O________OO___ jtwc_sh SH251976 -15.8000 163.300 -1 -15.8000 163.300 TC -15.8000 163.300 1 13 110
1976106S12155 1976 42 SP MM JAN 1976-04-17 03:00:00 TS -16.1527 164.040 main 292 231 P________PP___ SH251976 -16.1298 164.026 -1 -16.1298 164.026 TC -16.1985 164.070 1 18 121
1976106S12155 1976 42 SP MM JAN 1976-04-17 06:00:00 TS -16.7271 164.919 main 231 197 O________OP___ jtwc_sh SH251976 -16.7000 164.900 -1 -16.7000 164.900 TC -16.7813 164.958 1 22 126
1976106S12155 1976 42 SP MM JAN 1976-04-17 09:00:00 TS -17.4545 165.891 main 194 180 P________PP___ SH251976 -17.4326 165.878 -1 -17.4326 165.878 TC -17.4983 165.918 1 25 130
1976106S12155 1976 42 SP MM JAN 1976-04-17 12:00:00 TS -18.3000 166.900 40 990 wellington main 200 197 O________OO___ jtwc_sh SH251976 -18.3000 166.900 -1 -18.3000 166.900 TC -18.3000 166.900 1 25 133
1976106S12155 1976 42 SP MM JAN 1976-04-17 15:00:00 TS -19.1658 167.844 main 290 290 P________PP___ SH251976 -19.1919 167.858 -1 -19.1919 167.858 TC -19.1136 167.817 1 27 134
1976106S12155 1976 42 SP MM JAN 1976-04-17 18:00:00 TS -20.1572 168.912 main 296 296 O________OP_O_ jtwc_sh SH251976 -20.1000 168.800 -1 -20.1000 168.800 TC -19.9950 168.750 1 -20.7000 169.700 TC 25 27 135
1976106S12155 1976 42 SP MM JAN 1976-04-17 21:00:00 TS -21.0505 169.867 main 323 323 P________PP_P_ SH251976 -20.9641 169.729 -1 -20.9641 169.729 TC -20.9039 169.708 1 -21.3577 170.302 TC 22 25 134
1976106S12155 1976 42 SP MM JAN 1976-04-18 00:00:00 TS -21.8667 170.800 40 990 wellington main 392 392 O_______OOO_O_ jtwc_sh SH251976 -21.8000 170.700 -1 -22.0000 171.000 40 990 -21.8000 170.700 TC -21.8000 170.700 1 -22.0000 171.000 TC 20 24 131
1976106S12155 1976 42 SP MM JAN 1976-04-18 03:00:00 TS -22.5989 171.806 main 494 494 P_______PPP_P_ SH251976 -22.6073 171.786 -1 -22.5569 171.916 37 991 -22.6073 171.786 TC -22.5741 171.791 1 -22.6149 171.855 TC 20 24 127
1976106S12155 1976 42 SP MM JAN 1976-04-18 06:00:00 TS -23.3115 172.853 main 614 614 O_______POP_O_ jtwc_sh SH251976 -23.4000 172.900 -1 -23.1189 172.839 35 993 -23.4000 172.900 TC -23.3347 172.908 1 -23.2000 172.800 TC 20 24 127
1976106S12155 1976 42 SP MM JAN 1976-04-18 09:00:00 TS -24.0418 173.921 main 730 730 P_______PPP_P_ SH251976 -24.1549 173.997 -1 -23.6965 173.767 32 995 -24.1549 173.997 TC -24.1276 173.995 1 -23.7508 173.751 TC 20 25 130
1976106S12155 1976 42 SP MM JAN 1976-04-18 12:00:00 TS -24.9000 174.957 30 997 wellington main 795 795 O_______OOO_O_ jtwc_sh SH251976 -25.0000 175.000 -1 -24.3000 174.700 30 997 -25.0000 175.000 TC -25.0000 175.000 1 -24.3000 174.700 TC 20 27 139
1976106S12155 1976 42 SP MM JAN 1976-04-18 15:00:00 TS -26.0661 175.846 main 898 883 P_______PPP_P_ SH251976 -26.0540 175.846 -1 -24.9377 175.637 -26.0540 175.846 TC -26.0901 175.846 1 -24.9044 175.652 TC 28 147
1976106S12155 1976 42 SP MM JAN 1976-04-18 18:00:00 TS -27.2179 176.604 main 883 802 O_______POP_P_ jtwc_sh SH251976 -27.2000 176.600 -1 -25.6078 176.573 -27.2000 176.600 TC -27.2537 176.611 1 -25.5522 176.597 TC 27 150
1976106S12155 1976 42 SP MM JAN 1976-04-18 21:00:00 TS -28.3745 177.334 main 792 742 P_______PPP_P_ SH251976 -28.3664 177.328 -1 -26.3065 177.498 -28.3664 177.328 TC -28.3907 177.346 1 -26.2382 177.529 TC 26 149
1976106S12155 1976 42 SP MM JAN 1976-04-19 00:00:00 TS -29.4000 178.100 30 997 wellington main 742 721 O_______POO_P_ jtwc_sh SH251976 -29.4000 178.100 -1 -27.0299 178.405 -29.4000 178.100 TC -29.4000 178.100 1 -26.9569 178.438 TC 23 140
1976106S12155 1976 42 SP MM JAN 1976-04-19 03:00:00 TS -30.1468 179.053 main 732 720 P_______PPP_P_ SH251976 -30.1328 179.044 -1 -27.7742 179.284 -30.1328 179.044 TC -30.1749 179.073 1 -27.7032 179.318 TC 21 129
1976106S12155 1976 42 SP MM JAN 1976-04-19 06:00:00 TS -30.7356 180.017 main 737 735 O_______POP_P_ jtwc_sh SH251976 -30.7000 180.000 -1 -28.5360 -179.875 -30.7000 180.000 TC -30.8068 -179.948 1 -28.4720 -179.842 TC 20 126
1976106S12155 1976 42 SP MM JAN 1976-04-19 09:00:00 TS -31.3084 180.918 main 741 708 P_______PPP_P_ SH251976 -31.2952 -179.088 -1 -29.3118 -179.080 -31.2952 -179.088 TC -31.3346 -179.070 1 -29.2585 -179.051 TC 17 128
1976106S12155 1976 42 SP MM JAN 1976-04-19 12:00:00 TS -31.8000 181.600 30 997 wellington main 712 692 O_______POO_P_ jtwc_sh SH251976 -31.8000 -178.400 -1 -30.0987 -178.343 -31.8000 181.600 TC -31.8000 -178.400 1 -30.0581 -178.319 TC 12 135
1976106S12155 1976 42 SP MM JAN 1976-04-19 15:00:00 TS -32.1611 181.928 main 682 656 P_______PPP_P_ SH251976 -32.1566 -178.079 -1 -30.8937 -177.675 -32.1566 -178.079 TC -32.1700 -178.058 1 -30.8663 -177.656 TC 8 153
1976106S12155 1976 42 SP MM JAN 1976-04-19 18:00:00 TS -32.5037 182.021 main 656 635 O_______POP_P_ jtwc_sh SH251976 -32.5000 -178.000 -1 -31.6940 -177.087 -32.5000 182.000 TC -32.5110 -177.937 1 -31.6788 -177.074 TC 7 158
1976106S12155 1976 42 SP MM JAN 1976-04-19 21:00:00 TS -32.8382 182.247 main 635 589 P_______PPP_P_ SH251976 -32.9025 -177.970 -1 -32.4969 -176.591 -32.9025 -177.970 TC -32.9216 -177.948 1 -32.4914 -176.585 TC 10 159
1976106S12155 1976 42 SP MM JAN 1976-04-20 00:00:00 TS -33.4500 182.450 30 997 wellington main 589 527 O_______OOO_O_ jtwc_sh SH251976 -33.5000 -178.000 -1 -33.3000 -176.200 30 997 -33.5000 182.000 TC -33.5000 -178.000 1 -33.3000 -176.200 TC 25 15 166
1976106S12155 1976 42 SP MM JAN 1976-04-20 03:00:00 TS -34.3045 182.694 main 527 474 P_______PPP_P_ SH251976 -34.4101 -178.007 -1 -34.0737 -175.857 32 995 -34.4101 -178.007 TC -34.3823 -178.008 1 -34.0967 -175.901 TC 27 18 168
1976106S12155 1976 42 SP MM JAN 1976-04-20 06:00:00 TS -35.2468 182.922 main 474 424 O_______POP_O_ jtwc_sh SH251976 -35.5000 -178.000 -1 -34.8624 -175.621 35 993 -35.5000 182.000 TC -35.4348 -178.030 1 -34.9000 -175.700 TC 30 19 173
1976106S12155 1976 42 SP MM JAN 1976-04-20 09:00:00 TS -36.2289 182.985 main 424 393 P_______PPP_P_ SH251976 -36.5998 -178.001 -1 -35.6700 -175.499 37 991 -36.5998 -178.001 TC -36.5698 -178.013 1 -35.6849 -175.540 TC 30 20 177
1976106S12155 1976 42 SP MM JAN 1976-04-20 12:00:00 TS -37.2200 183.060 40 990 wellington main 400 394 O_______OOO_O_ jtwc_sh SH251976 -37.7000 -177.900 -1 -36.5000 -175.500 40 990 -37.7000 182.100 TC -37.7000 -177.900 1 -36.5000 -175.500 TC 30 20 175
1976106S12155 1976 42 SP MM JAN 1976-04-20 15:00:00 TS -38.1959 183.205 main 406 406 P_______PPP_P_ SH251976 -38.7225 -177.610 -1 -37.3537 -175.626 43 987 -38.7225 -177.610 TC -38.7993 -177.555 1 -37.3924 -175.583 TC 32 20 175
1976106S12155 1976 42 SP MM JAN 1976-04-20 18:00:00 TS -39.2550 183.280 main 440 440 O_______POP_O_ jtwc_sh SH251976 -39.7000 -177.200 -1 -38.2262 -175.855 47 985 -39.7000 182.800 TC -39.8620 -177.110 1 -38.3000 -175.800 TC 35 22 175
1976106S12155 1976 42 SP MM JAN 1976-04-20 21:00:00 TS -40.3583 183.445 main 482 482 P_______PPP_P_ SH251976 -40.7404 -176.715 -1 -39.1106 -176.157 51 982 -40.7404 -176.715 TC -40.8184 -176.658 1 -39.1653 -176.121 TC 35 21 172
1976106S12155 1976 42 SP MM JAN 1976-04-21 00:00:00 TS -41.3714 183.671 55 980 wellington main 542 542 O_______OOO_O_ jtwc_sh SH251976 -41.6000 -176.300 -1 -40.0000 -176.500 55 980 -41.6000 183.700 TC -41.6000 -176.300 1 -40.0000 -176.500 TC 35 18 169
1976106S12155 1976 42 SP MM JAN 1976-04-21 03:00:00 TS -42.0883 183.893 main 592 592 P________PP___ SH251976 -42.0971 -176.116 -1 -42.0971 -176.116 TC -42.0706 -176.090 1 TC 10 169
1976106S12155 1976 42 SP MM JAN 1976-04-21 06:00:00 TS -42.3931 183.930 main 609 609 O________OP___ jtwc_sh SH251976 -42.4000 -176.100 -1 -42.4000 183.900 TC -42.3793 -176.009 1 6 182
1976106S12155 1976 42 SP MM JAN 1976-04-21 09:00:00 TS -42.6627 183.891 main 628 628 P________PP___ SH251976 -42.6698 -176.126 -1 -42.6698 -176.126 TC -42.6485 -176.073 1 6 195
1976106S12155 1976 42 SP MM JAN 1976-04-21 12:00:00 TS -43.0000 183.700 main 635 635 O________OO___ jtwc_sh SH251976 -43.0000 -176.300 -1 -43.0000 183.700 TC -43.0000 -176.300 1 9 204
1976106S12155 1976 42 SP MM JAN 1976-04-21 15:00:00 TS -43.5251 183.365 main 651 647 P________PP___ SH251976 -43.5245 -176.604 -1 -43.5245 -176.604 TC -43.5262 -176.698 1 13 207
1976106S12155 1976 42 SP MM JAN 1976-04-21 18:00:00 TS -44.2011 182.854 main 653 643 O________OP___ jtwc_sh SH251976 -44.2000 -177.100 -1 -44.2000 182.900 TC -44.2033 -177.239 1 17 210
1976106S12155 1976 42 SP MM JAN 1976-04-21 21:00:00 TS -44.9772 182.178 main 655 649 P________PP___ SH251976 -44.9765 -177.789 -1 -44.9765 -177.789 TC -44.9786 -177.887 1 19 213
1976106S12155 1976 42 SP MM JAN 1976-04-22 00:00:00 TS -45.8000 181.400 main 669 O________OO___ jtwc_sh SH251976 -45.8000 -178.600 -1 -45.8000 181.400 TC -45.8000 -178.600 1 20 213

デジタル台風データ・検索

IBTrACS Databaseについて

本データベースは、米国NOAAが公開する1842年以降の世界の熱帯低気圧のベストトラックデータアーカイブInternational Best Track Archive for Climate Stewardship (IBTrACS)を、ウェブで閲覧しやすい形式に変換したものです。

最終更新日:2021-12-03